Portada
METAR-TAF:

METAR-TAF

Aeroports :

Eau Claire, Wisconsin, Estats Units d'Amèrica

latitud: 44-51-55N, longitud: 091-29-06W, altitud: 277 m

Observació

L'informe es va fer fa 28 minuts, a les 18:56 UTC
Vent 6 kt del Sud-Oest
Temperatura -8°C
Humitat 92%
Pressió 1020 hPa
Visibilitat: 3.2 km
Cel cobert a una alçada de 400 ft
boirina

METAR: KEAU 101856Z 23006KT 2SM BR OVC004 M08/M09 A3011 RMK AO2 SLP215 T10781089

Hora: 13:24 (19:24 UTC)

Pronòstic

L'informe es va fer fa 1 hora i 43 minuts, a les 17:41 UTC
Pronòstic vàlid del 10 a les 18 UTC al 11 a les 18 UTC
Vent 8 kt del Sud-Oest
Visibilitat: 6.4 km
Cel cobert a una alçada de 600 ft
boirina
A partir de les 11 a les 0200 UTC
Vent 6 kt del Sud-Oest
Visibilitat: 9.7 km
Escasses núvols a una alçada de 800 ft
boirina
A partir de les 11 a les 0600 UTC
Vent kt del Nord
Visibilitat: 2.4 km
Cel cobert a una alçada de 300 ft
boirina

TAF: KEAU 101741Z 1018/1118 22008KT 4SM BR OVC006 FM110200 22006KT 6SM BR FEW008 FM110600 00000KT 1 1/2SM BR OVC003

Observacions i pronòstics meteorològics de més de 4000 aeroports (METAR i TAF).

Les estacions disponibles són els punts grocs i vermells al mapa.

Posi el ratolí al punt desitjat per veure el nom de l'estació.

Feu clic per veure les observacions i els pronòstics meteorològics.

Per canviar el mapa: feu clic els botons verds amb una creu de color negre per apropar; al botó verd amb un guió per allunyar la imatge; o en les fletxes verdes per a mapes adjacents.


METAR-TAF: